Ames, Nebraska
Current Conditions -  °F | °C
As of 12:55 AM on Saturday 25 Oct 2014 (Local Time) from KFET Reporting Station
Clear Clear  
Wind Chill: 51°   Ceiling: Unl
Heat Index: 51°   Visibility: 10mi
Dew Point: 46°   Wind: 6mph
Humidity: 85%   Direction: 300°WNW
Pressure: 30.02"   Gusts: NA
Location:  41.45°N, 96.63°W
Report Text: KFET 250555Z AUTO 30005KT 10SM CLR 11/08 A3002 RMK AO2 T01050080 10191 20105 402420105
Loading
Personal Weather Stations






























Interactive Weather Map
Tropical Storm Tracking
New forecast layout! Learn more

10-Day Weather Forecast

Advertisements
Track Severe Weather on mobile